Atlanticbeach, North Carolina
Current Conditions -  °F | °C
As of 7:58 AM on Friday 28 Nov 2014 (Local Time) from KMRH Reporting Station
Clear Clear  
Wind Chill: 27°   Ceiling: Unl
Heat Index: 36°   Visibility: 10mi
Dew Point: 27°   Wind: 14mph
Humidity: 70%   Direction: 340°NNW
Pressure: 30.31"   Gusts: NA
Location:  34.6984°N, 76.7775°W
Report Text: KMRH 281258Z AUTO 34012KT 10SM CLR 02/M03 A3031 RMK AO2 SLP265 T00221028 TSNO
Loading
Personal Weather Stations






























Interactive Weather Map New forecast layout! Learn more

10-Day Weather Forecast

Advertisements
Track Severe Weather on mobile